Sperling, Canada
Current Conditions -  °F | °C
As of 10:00 PM on Friday 24 Oct 2014 (Local Time) from CYWG Reporting Station
Clear Clear  
Wind Chill: 52°   Ceiling: Unl
Heat Index: 52°   Visibility: 15mi
Dew Point: 34°   Wind: 21mph
Humidity: 50%   Direction: 280°W
Pressure: 29.77"   Gusts: 29mph
Location:  49.52°N, 97.7°W
Report Text: CYWG 250300Z 28018G25KT 15SM SKC 11/01 A2977 RMK SLP085
Loading
Personal Weather Stations






























Interactive Weather Map
Tropical Storm Tracking
New forecast layout! Learn more

10-Day Weather Forecast

Advertisements
Track Severe Weather on mobile